createdAt,value
2019-03-08T00:00:07.526Z,0.00
2019-03-08T00:01:07.597Z,0.00
2019-03-08T00:02:07.487Z,0.00
2019-03-08T00:03:07.434Z,0.00
2019-03-08T00:04:08.300Z,0.00
2019-03-08T00:05:07.365Z,0.00
2019-03-08T00:06:07.395Z,0.00
2019-03-08T00:07:07.333Z,0.00
2019-03-08T00:08:07.275Z,0.00
2019-03-08T00:09:08.998Z,0.00
2019-03-08T00:10:07.225Z,0.00
2019-03-08T00:11:07.172Z,0.00
2019-03-08T00:12:07.874Z,0.00
2019-03-08T00:13:07.800Z,0.00
2019-03-08T00:14:07.801Z,0.00
2019-03-08T00:15:07.043Z,0.00
2019-03-08T00:16:07.017Z,0.00
2019-03-08T00:17:07.331Z,0.00
2019-03-08T00:18:06.953Z,0.00
2019-03-08T00:19:07.799Z,0.00
2019-03-08T00:20:06.888Z,0.00
2019-03-08T00:21:07.803Z,0.00
2019-03-08T00:22:07.799Z,0.00
2019-03-08T00:23:06.838Z,0.00
2019-03-08T00:24:07.301Z,0.00
2019-03-08T00:25:07.296Z,0.00
2019-03-08T00:26:06.690Z,0.00
2019-03-08T00:27:07.304Z,0.00
2019-03-08T00:28:06.835Z,0.00
2019-03-08T00:29:06.596Z,0.00
2019-03-08T00:30:06.561Z,0.00
2019-03-08T00:31:07.302Z,0.00
2019-03-08T00:32:06.501Z,0.00
2019-03-08T00:33:06.497Z,0.00
2019-03-08T00:34:06.433Z,0.00
2019-03-08T00:35:06.410Z,0.00
2019-03-08T00:36:06.372Z,0.00
2019-03-08T00:37:06.337Z,0.00
2019-03-08T00:38:06.332Z,0.00
2019-03-08T00:39:06.801Z,0.00
2019-03-08T00:40:06.400Z,0.00
2019-03-08T00:41:06.206Z,0.00
2019-03-08T00:42:06.858Z,0.00
2019-03-08T00:43:06.340Z,0.00
2019-03-08T00:44:06.805Z,0.00
2019-03-08T00:45:06.074Z,0.00
2019-03-08T00:46:06.046Z,0.00
2019-03-08T00:47:06.011Z,0.00
2019-03-08T00:48:06.010Z,0.00
2019-03-08T00:49:08.083Z,0.00
2019-03-08T00:50:05.920Z,0.00
2019-03-08T00:51:05.890Z,0.00
2019-03-08T00:52:06.803Z,0.00
2019-03-08T00:53:05.856Z,0.00
2019-03-08T00:54:05.787Z,0.00
2019-03-08T00:55:05.766Z,0.00
2019-03-08T00:56:05.728Z,0.00
2019-03-08T00:57:05.689Z,0.00
2019-03-08T00:58:05.691Z,0.00
2019-03-08T00:59:05.628Z,0.00
2019-03-08T01:00:05.596Z,0.00
2019-03-08T01:01:05.561Z,0.00
2019-03-08T01:02:05.526Z,0.00
2019-03-08T01:03:05.633Z,0.00
2019-03-08T01:04:05.467Z,0.00
2019-03-08T01:05:05.436Z,0.00
2019-03-08T01:06:05.407Z,0.00
2019-03-08T01:07:05.369Z,0.00
2019-03-08T01:08:05.845Z,0.00
2019-03-08T01:09:05.319Z,0.00
2019-03-08T01:10:05.270Z,0.00
2019-03-08T01:11:05.233Z,0.00
2019-03-08T01:12:05.223Z,0.00
2019-03-08T01:13:05.337Z,0.00
2019-03-08T01:14:05.141Z,0.00
2019-03-08T01:15:05.103Z,0.00
2019-03-08T01:16:05.075Z,0.00
2019-03-08T01:17:05.046Z,0.00
2019-03-08T01:18:05.034Z,0.00
2019-03-08T01:19:04.975Z,0.00
2019-03-08T01:20:04.944Z,0.00
2019-03-08T01:21:05.808Z,0.00
2019-03-08T01:22:04.884Z,0.00
2019-03-08T01:23:04.898Z,0.00
2019-03-08T01:24:04.818Z,0.00
2019-03-08T01:25:05.315Z,0.00
2019-03-08T01:26:04.755Z,0.00
2019-03-08T01:27:04.720Z,0.00
2019-03-08T01:28:04.723Z,0.00
2019-03-08T01:29:04.660Z,0.00
2019-03-08T01:30:04.634Z,0.00
2019-03-08T01:31:04.586Z,0.00
2019-03-08T01:32:05.577Z,0.00
2019-03-08T01:33:04.530Z,0.00
2019-03-08T01:34:04.521Z,0.00
2019-03-08T01:35:04.467Z,0.00
2019-03-08T01:36:04.426Z,0.00
2019-03-08T01:37:04.393Z,0.00
2019-03-08T01:38:04.373Z,0.00
2019-03-08T01:39:04.386Z,0.00
2019-03-08T01:40:04.811Z,0.00
2019-03-08T01:41:04.825Z,0.00
2019-03-08T01:42:04.267Z,0.00
2019-03-08T01:43:04.844Z,0.00
2019-03-08T01:44:04.193Z,0.00
2019-03-08T01:45:04.134Z,0.00
2019-03-08T01:46:04.106Z,0.00
2019-03-08T01:47:04.081Z,0.00
2019-03-08T01:48:04.814Z,0.00
2019-03-08T01:49:04.028Z,0.00
2019-03-08T01:50:03.978Z,0.00
2019-03-08T01:51:04.812Z,0.00
2019-03-08T01:52:03.927Z,0.00
2019-03-08T01:53:03.875Z,0.00
2019-03-08T01:54:04.354Z,0.00
2019-03-08T01:55:03.816Z,0.00
2019-03-08T01:56:04.315Z,0.00
2019-03-08T01:57:06.314Z,0.00
2019-03-08T01:58:04.313Z,0.00
2019-03-08T01:59:03.853Z,0.00
2019-03-08T02:00:03.661Z,0.00
2019-03-08T02:01:03.620Z,0.00
2019-03-08T02:02:04.310Z,0.00
2019-03-08T02:03:04.347Z,0.00
2019-03-08T02:04:03.850Z,0.00
2019-03-08T02:05:03.484Z,0.00
2019-03-08T02:06:03.455Z,0.00
2019-03-08T02:07:03.417Z,0.00
2019-03-08T02:08:03.393Z,0.00
2019-03-08T02:09:03.923Z,0.00
2019-03-08T02:10:03.322Z,0.00
2019-03-08T02:11:03.812Z,0.00
2019-03-08T02:12:03.821Z,0.00
2019-03-08T02:13:03.831Z,0.00
2019-03-08T02:14:03.220Z,0.00
2019-03-08T02:15:03.817Z,0.00
2019-03-08T02:16:03.816Z,0.00
2019-03-08T02:17:03.092Z,0.00
2019-03-08T02:18:03.066Z,0.00
2019-03-08T02:19:03.357Z,0.00
2019-03-08T02:20:03.823Z,0.00
2019-03-08T02:21:07.085Z,0.00
2019-03-08T02:22:02.934Z,0.00
2019-03-08T02:23:02.897Z,0.00
2019-03-08T02:24:03.353Z,0.00
2019-03-08T02:25:02.843Z,0.00
2019-03-08T02:26:02.810Z,0.00
2019-03-08T02:27:03.334Z,0.00
2019-03-08T02:28:03.315Z,0.00
2019-03-08T02:29:02.853Z,0.00
2019-03-08T02:30:03.320Z,0.00
2019-03-08T02:31:02.642Z,0.00
2019-03-08T02:32:02.605Z,0.00
2019-03-08T02:33:02.572Z,0.00
2019-03-08T02:34:02.566Z,0.00
2019-03-08T02:35:03.314Z,0.00
2019-03-08T02:36:02.472Z,0.00
2019-03-08T02:37:03.315Z,0.00
2019-03-08T02:38:03.319Z,0.00
2019-03-08T02:39:02.419Z,0.00
2019-03-08T02:40:02.375Z,0.00
2019-03-08T02:41:02.319Z,0.00
2019-03-08T02:42:02.288Z,0.00
2019-03-08T02:43:02.817Z,0.00
2019-03-08T02:44:02.245Z,0.00
2019-03-08T02:45:02.215Z,0.00
2019-03-08T02:46:02.153Z,0.00
2019-03-08T02:47:02.815Z,0.00
2019-03-08T02:48:02.817Z,0.00
2019-03-08T02:49:02.822Z,0.00
2019-03-08T02:50:02.050Z,0.00
2019-03-08T02:51:01.996Z,0.00
2019-03-08T02:52:01.954Z,0.00
2019-03-08T02:53:01.928Z,0.00
2019-03-08T02:54:01.907Z,0.00
2019-03-08T02:55:02.360Z,0.00
2019-03-08T02:56:02.825Z,0.00
2019-03-08T02:57:02.722Z,0.00
2019-03-08T02:58:01.781Z,0.00
2019-03-08T02:59:01.728Z,0.00
2019-03-08T03:00:01.733Z,0.00
2019-03-08T03:01:01.664Z,0.00
2019-03-08T03:02:01.653Z,0.00
2019-03-08T03:03:02.319Z,0.00
2019-03-08T03:04:01.573Z,0.00
2019-03-08T03:05:01.574Z,0.00
2019-03-08T03:06:01.503Z,0.00
2019-03-08T03:07:01.473Z,0.00
2019-03-08T03:08:01.437Z,0.00
2019-03-08T03:09:01.417Z,0.00
2019-03-08T03:10:01.415Z,0.00
2019-03-08T03:12:01.313Z,0.00
2019-03-08T03:13:01.284Z,0.00
2019-03-08T03:14:01.837Z,0.00
2019-03-08T03:15:01.248Z,0.00
2019-03-08T03:16:01.182Z,0.00
2019-03-08T03:17:01.152Z,0.00
2019-03-08T03:18:01.118Z,0.00
2019-03-08T03:19:01.100Z,0.00
2019-03-08T03:20:01.081Z,0.00
2019-03-08T03:21:01.060Z,0.00
2019-03-08T03:22:00.990Z,0.00
2019-03-08T03:23:01.001Z,0.00
2019-03-08T03:24:01.823Z,0.00
2019-03-08T03:25:01.367Z,0.00
2019-03-08T03:26:00.871Z,0.00
2019-03-08T03:27:00.842Z,0.00
2019-03-08T03:28:01.322Z,0.00
2019-03-08T03:29:00.767Z,0.00
2019-03-08T03:30:00.790Z,0.00
2019-03-08T03:31:00.713Z,0.00
2019-03-08T03:32:00.678Z,0.00
2019-03-08T03:33:00.642Z,0.00
2019-03-08T03:34:00.605Z,0.00
2019-03-08T03:35:00.606Z,0.00
2019-03-08T03:36:00.696Z,0.00
2019-03-08T03:37:00.515Z,0.00
2019-03-08T03:38:01.330Z,0.00
2019-03-08T03:39:01.376Z,0.00
2019-03-08T03:40:00.452Z,0.00
2019-03-08T03:41:01.327Z,0.00
2019-03-08T03:42:00.353Z,0.00
2019-03-08T03:43:00.824Z,0.00
2019-03-08T03:44:00.294Z,0.00
2019-03-08T03:45:00.364Z,0.00
2019-03-08T03:46:00.225Z,0.00
2019-03-08T03:47:00.828Z,0.00
2019-03-08T03:48:00.832Z,0.00
2019-03-08T03:49:00.863Z,0.00
2019-03-08T03:50:00.475Z,0.00
2019-03-08T03:51:00.827Z,0.00
2019-03-08T03:52:00.034Z,0.00
2019-03-08T03:53:00.002Z,0.00
2019-03-08T03:53:59.970Z,0.00
2019-03-08T03:54:59.931Z,0.00
2019-03-08T03:56:00.368Z,0.00
2019-03-08T03:56:59.891Z,0.00
2019-03-08T03:57:59.836Z,0.00
2019-03-08T03:59:00.325Z,0.00
2019-03-08T03:59:59.776Z,0.00
2019-03-08T04:00:59.872Z,0.00
2019-03-08T04:01:59.713Z,0.00
2019-03-08T04:02:59.686Z,0.00
2019-03-08T04:03:59.646Z,0.00
2019-03-08T04:04:59.697Z,0.00
2019-03-08T04:05:59.607Z,0.00
2019-03-08T04:06:59.547Z,0.00
2019-03-08T04:07:59.519Z,0.00
2019-03-08T04:08:59.492Z,0.00
2019-03-08T04:10:00.330Z,0.00
2019-03-08T04:10:59.867Z,0.00
2019-03-08T04:12:00.336Z,0.00
2019-03-08T04:12:59.362Z,0.00
2019-03-08T04:13:59.862Z,0.00
2019-03-08T04:14:59.296Z,0.00
2019-03-08T04:15:59.359Z,0.00
2019-03-08T04:16:59.230Z,0.00
2019-03-08T04:17:59.228Z,0.00
2019-03-08T04:18:59.209Z,0.00
2019-03-08T04:19:59.137Z,0.00
2019-03-08T04:20:59.368Z,0.00
2019-03-08T04:21:59.835Z,0.00
2019-03-08T04:22:59.032Z,0.00
2019-03-08T04:23:59.828Z,0.00
2019-03-08T04:24:58.978Z,0.00
2019-03-08T04:25:59.373Z,0.00
2019-03-08T04:26:58.913Z,0.00
2019-03-08T04:27:58.886Z,0.00
2019-03-08T04:28:58.847Z,0.00
2019-03-08T04:29:59.334Z,0.00
2019-03-08T04:30:58.874Z,0.00
2019-03-08T04:31:58.752Z,0.00
2019-03-08T04:32:58.718Z,0.00
2019-03-08T04:33:59.341Z,0.00
2019-03-08T04:34:58.660Z,0.00
2019-03-08T04:35:58.868Z,0.00
2019-03-08T04:36:58.600Z,0.00
2019-03-08T04:37:58.564Z,0.00
2019-03-08T04:38:58.523Z,0.00
2019-03-08T04:39:59.338Z,0.00
2019-03-08T04:40:58.872Z,0.00
2019-03-08T04:41:58.431Z,0.00
2019-03-08T04:42:58.406Z,0.00
2019-03-08T04:43:58.378Z,0.00
2019-03-08T04:44:58.338Z,0.00
2019-03-08T04:45:58.374Z,0.00
2019-03-08T04:46:58.266Z,0.00
2019-03-08T04:47:58.836Z,0.00
2019-03-08T04:48:58.203Z,0.00
2019-03-08T04:49:58.272Z,0.00
2019-03-08T04:50:58.387Z,0.00
2019-03-08T04:51:58.110Z,0.00
2019-03-08T04:52:58.079Z,0.00
2019-03-08T04:53:58.837Z,0.00
2019-03-08T04:54:58.039Z,0.00
2019-03-08T04:55:58.012Z,0.00
2019-03-08T04:56:57.965Z,0.00
2019-03-08T04:57:57.962Z,0.00
2019-03-08T04:58:57.888Z,0.00
2019-03-08T04:59:58.837Z,0.00
2019-03-08T05:00:57.890Z,0.00
2019-03-08T05:01:57.799Z,0.00
2019-03-08T05:02:58.337Z,0.00
2019-03-08T05:03:58.392Z,0.00
2019-03-08T05:04:58.342Z,0.00
2019-03-08T05:05:57.888Z,0.00
2019-03-08T05:06:58.337Z,0.00
2019-03-08T05:07:58.340Z,0.00
2019-03-08T05:08:57.574Z,0.00
2019-03-08T05:09:57.541Z,0.00
2019-03-08T05:10:57.507Z,4.00
2019-03-08T05:11:57.525Z,4.00
2019-03-08T05:12:57.442Z,0.00
2019-03-08T05:13:57.454Z,0.00
2019-03-08T05:14:57.385Z,4.00
2019-03-08T05:15:59.241Z,0.00
2019-03-08T05:16:57.366Z,4.00
2019-03-08T05:17:58.505Z,8.00
2019-03-08T05:18:57.262Z,4.00
2019-03-08T05:19:57.843Z,4.00
2019-03-08T05:20:57.196Z,4.00
2019-03-08T05:21:57.186Z,8.00
2019-03-08T05:22:57.127Z,8.00
2019-03-08T05:23:57.102Z,12.00
2019-03-08T05:24:57.081Z,12.00
2019-03-08T05:25:57.037Z,16.00
2019-03-08T05:26:57.033Z,16.00
2019-03-08T05:27:57.972Z,20.00
2019-03-08T05:28:56.943Z,24.00
2019-03-08T05:29:56.908Z,24.00
2019-03-08T05:30:57.840Z,32.00
2019-03-08T05:31:56.872Z,36.00
2019-03-08T05:32:56.822Z,40.00
2019-03-08T05:33:56.854Z,44.00
2019-03-08T05:34:56.758Z,52.00
2019-03-08T05:35:56.754Z,56.00
2019-03-08T05:36:56.716Z,60.00
2019-03-08T05:37:56.669Z,76.00
2019-03-08T05:38:56.692Z,80.00
2019-03-08T05:39:56.594Z,84.00
2019-03-08T05:40:57.262Z,100.00
2019-03-08T05:41:56.720Z,104.00
2019-03-08T05:42:56.500Z,124.00
2019-03-08T05:43:56.469Z,144.00
2019-03-08T05:44:56.477Z,144.00
2019-03-08T05:45:56.413Z,156.00
2019-03-08T05:46:56.398Z,148.00
2019-03-08T05:47:56.353Z,160.00
2019-03-08T05:48:56.322Z,176.00
2019-03-08T05:49:56.283Z,192.00
2019-03-08T05:50:56.852Z,204.00
2019-03-08T05:51:56.247Z,268.00
2019-03-08T05:52:56.223Z,344.00
2019-03-08T05:53:56.163Z,428.00
2019-03-08T05:54:56.130Z,488.00
2019-03-08T05:55:56.098Z,588.00
2019-03-08T05:56:56.113Z,568.00
2019-03-08T05:57:56.035Z,564.00
2019-03-08T05:58:56.009Z,548.00
2019-03-08T05:59:56.854Z,588.00
2019-03-08T06:00:55.942Z,556.00
2019-03-08T06:01:55.951Z,496.00
2019-03-08T06:02:55.879Z,452.00
2019-03-08T06:03:55.968Z,476.00
2019-03-08T06:04:56.356Z,472.00
2019-03-08T06:05:56.346Z,500.00
2019-03-08T06:06:55.787Z,560.00
2019-03-08T06:07:55.723Z,644.00
2019-03-08T06:08:56.346Z,728.00
2019-03-08T06:09:55.673Z,680.00
2019-03-08T06:10:55.633Z,644.00
2019-03-08T06:11:55.693Z,740.00
2019-03-08T06:12:56.257Z,768.00
2019-03-08T06:13:55.537Z,820.00
2019-03-08T06:14:56.348Z,920.00
2019-03-08T06:15:56.350Z,1076.00
2019-03-08T06:16:55.507Z,1076.00
2019-03-08T06:17:56.452Z,1084.00
2019-03-08T06:18:55.391Z,1052.00
2019-03-08T06:19:55.351Z,1132.00
2019-03-08T06:20:55.318Z,1240.00
2019-03-08T06:21:55.296Z,1372.00
2019-03-08T06:22:55.418Z,1388.00
2019-03-08T06:23:55.228Z,1172.00
2019-03-08T06:24:55.201Z,1192.00
2019-03-08T06:25:55.173Z,1496.00
2019-03-08T06:26:55.140Z,1572.00
2019-03-08T06:27:55.147Z,1096.00
2019-03-08T06:28:55.072Z,860.00
2019-03-08T06:29:55.066Z,852.00
2019-03-08T06:30:55.044Z,840.00
2019-03-08T06:31:54.976Z,916.00
2019-03-08T06:32:54.974Z,916.00
2019-03-08T06:33:54.929Z,1076.00
2019-03-08T06:34:54.933Z,1404.00
2019-03-08T06:35:54.851Z,1468.00
2019-03-08T06:36:54.830Z,2024.00
2019-03-08T06:37:54.817Z,1904.00
2019-03-08T06:38:54.769Z,1488.00
2019-03-08T06:39:54.753Z,1260.00
2019-03-08T06:40:54.738Z,1152.00
2019-03-08T06:41:54.691Z,1228.00
2019-03-08T06:42:54.662Z,1228.00
2019-03-08T06:43:54.615Z,1432.00
2019-03-08T06:45:01.639Z,1708.00
2019-03-08T06:45:54.544Z,1912.00
2019-03-08T06:46:54.508Z,2096.00
2019-03-08T06:47:54.507Z,2084.00
2019-03-08T06:48:54.453Z,1872.00
2019-03-08T06:49:54.419Z,2044.00
2019-03-08T06:50:55.379Z,2132.00
2019-03-08T06:51:54.365Z,2296.00
2019-03-08T06:52:54.344Z,2180.00
2019-03-08T06:53:54.292Z,2108.00
2019-03-08T06:54:54.819Z,1976.00
2019-03-08T06:55:54.242Z,2284.00
2019-03-08T06:56:54.231Z,2136.00
2019-03-08T06:57:54.204Z,2332.00
2019-03-08T06:58:54.141Z,2208.00
2019-03-08T06:59:54.109Z,2176.00
2019-03-08T07:00:54.093Z,2124.00
2019-03-08T07:01:54.049Z,2240.00
2019-03-08T07:02:54.405Z,2384.00
2019-03-08T07:03:53.991Z,2288.00
2019-03-08T07:04:53.973Z,2464.00
2019-03-08T07:05:53.932Z,3184.00
2019-03-08T07:06:54.869Z,3140.00
2019-03-08T07:07:53.907Z,2824.00
2019-03-08T07:08:53.897Z,2764.00
2019-03-08T07:09:54.368Z,2560.00
2019-03-08T07:10:53.787Z,2412.00
2019-03-08T07:11:53.831Z,2464.00
2019-03-08T07:13:02.523Z,2624.00
2019-03-08T07:13:53.748Z,2660.00
2019-03-08T07:14:53.741Z,2944.00
2019-03-08T07:15:53.636Z,3064.00
2019-03-08T07:16:53.628Z,3104.00
2019-03-08T07:17:53.586Z,3180.00
2019-03-08T07:18:53.531Z,3236.00
2019-03-08T07:19:53.502Z,3308.00
2019-03-08T07:20:53.485Z,3024.00
2019-03-08T07:21:53.452Z,3200.00
2019-03-08T07:22:53.428Z,3252.00
2019-03-08T07:23:53.911Z,3228.00
2019-03-08T07:24:53.344Z,3292.00
2019-03-08T07:25:54.468Z,3540.00
2019-03-08T07:26:53.294Z,3924.00
2019-03-08T07:27:53.415Z,4092.00
2019-03-08T07:28:53.222Z,4380.00
2019-03-08T07:29:53.196Z,4888.00
2019-03-08T07:30:57.961Z,4816.00
2019-03-08T07:31:53.127Z,4884.00
2019-03-08T07:32:53.099Z,5036.00
2019-03-08T07:33:53.611Z,5116.00
2019-03-08T07:34:53.044Z,5664.00
2019-03-08T07:35:53.140Z,4808.00
2019-03-08T07:36:52.976Z,4624.00
2019-03-08T07:37:53.009Z,4764.00
2019-03-08T07:38:52.994Z,4576.00
2019-03-08T07:39:53.910Z,3932.00
2019-03-08T07:40:52.854Z,3640.00
2019-03-08T07:41:52.832Z,3524.00
2019-03-08T07:42:52.796Z,4508.00
2019-03-08T07:43:52.794Z,4272.00
2019-03-08T07:44:52.754Z,4368.00
2019-03-08T07:45:53.286Z,5336.00
2019-03-08T07:46:56.283Z,4580.00
2019-03-08T07:47:52.646Z,4420.00
2019-03-08T07:48:52.637Z,4844.00
2019-03-08T07:49:52.580Z,5860.00
2019-03-08T07:50:52.565Z,6160.00
2019-03-08T07:51:52.528Z,7104.00
2019-03-08T07:52:52.498Z,6484.00
2019-03-08T07:53:52.487Z,7440.00
2019-03-08T07:54:53.176Z,8420.00
2019-03-08T07:55:52.400Z,7168.00
2019-03-08T07:56:56.284Z,5944.00
2019-03-08T07:57:52.421Z,6052.00
2019-03-08T07:58:52.332Z,6276.00
2019-03-08T07:59:53.913Z,6100.00
2019-03-08T08:00:53.088Z,4796.00
2019-03-08T08:01:52.225Z,4288.00
2019-03-08T08:02:52.197Z,3836.00
2019-03-08T08:03:52.796Z,3540.00
2019-03-08T08:04:52.131Z,3412.00
2019-03-08T08:05:57.978Z,3260.00
2019-03-08T08:06:52.890Z,3280.00
2019-03-08T08:07:52.789Z,3416.00
2019-03-08T08:08:52.106Z,3396.00
2019-03-08T08:09:52.007Z,3408.00
2019-03-08T08:10:51.956Z,3056.00
2019-03-08T08:11:51.922Z,2592.00
2019-03-08T08:12:52.786Z,2480.00
2019-03-08T08:13:51.863Z,2288.00
2019-03-08T08:14:51.863Z,2112.00
2019-03-08T08:15:51.798Z,2568.00
2019-03-08T08:16:51.777Z,3204.00
2019-03-08T08:17:52.382Z,2856.00
2019-03-08T08:18:51.711Z,2444.00
2019-03-08T08:19:51.705Z,2404.00
2019-03-08T08:20:52.295Z,2320.00
2019-03-08T08:21:51.646Z,2028.00
2019-03-08T08:22:51.610Z,1804.00
2019-03-08T08:23:51.555Z,2052.00
2019-03-08T08:24:51.522Z,2252.00
2019-03-08T08:25:51.519Z,2388.00
2019-03-08T08:26:51.465Z,2464.00
2019-03-08T08:27:51.430Z,2292.00
2019-03-08T08:28:51.409Z,2608.00
2019-03-08T08:29:51.383Z,2388.00
2019-03-08T08:30:51.363Z,1804.00
2019-03-08T08:31:51.306Z,1392.00
2019-03-08T08:32:51.283Z,1492.00
2019-03-08T08:33:51.921Z,2064.00
2019-03-08T08:34:51.264Z,2740.00
2019-03-08T08:35:51.225Z,2644.00
2019-03-08T08:36:51.188Z,2564.00
2019-03-08T08:37:51.888Z,2484.00
2019-03-08T08:38:51.889Z,2544.00
2019-03-08T08:39:51.882Z,2636.00
2019-03-08T08:40:51.071Z,2544.00
2019-03-08T08:41:51.883Z,2320.00
2019-03-08T08:42:51.888Z,2740.00
2019-03-08T08:43:51.906Z,3468.00
2019-03-08T08:44:53.117Z,3192.00
2019-03-08T08:45:50.923Z,3032.00
2019-03-08T08:46:51.386Z,2864.00
2019-03-08T08:47:52.791Z,2928.00
2019-03-08T08:48:50.795Z,3060.00
2019-03-08T08:49:54.686Z,3956.00
2019-03-08T08:50:50.755Z,3496.00
2019-03-08T08:51:50.699Z,3000.00
2019-03-08T08:52:50.667Z,3476.00
2019-03-08T08:53:51.389Z,3492.00
2019-03-08T08:54:50.615Z,4528.00
2019-03-08T08:55:50.610Z,5428.00
2019-03-08T08:56:50.546Z,4784.00
2019-03-08T08:57:50.543Z,4312.00
2019-03-08T08:58:50.497Z,4208.00
2019-03-08T08:59:50.446Z,4128.00
2019-03-08T09:00:50.429Z,4028.00
2019-03-08T09:01:50.409Z,4432.00
2019-03-08T09:02:56.794Z,5012.00
2019-03-08T09:03:50.327Z,6000.00
2019-03-08T09:04:50.291Z,7220.00
2019-03-08T09:05:50.275Z,7316.00
2019-03-08T09:06:50.430Z,7084.00
2019-03-08T09:07:50.223Z,4920.00
2019-03-08T09:08:50.203Z,6812.00
2019-03-08T09:09:50.177Z,7460.00
2019-03-08T09:10:50.122Z,6184.00
2019-03-08T09:11:52.627Z,6196.00
2019-03-08T09:12:50.054Z,7404.00
2019-03-08T09:13:50.033Z,7224.00
2019-03-08T09:14:50.940Z,6716.00
2019-03-08T09:15:49.969Z,4272.00
2019-03-08T09:16:49.959Z,5564.00
2019-03-08T09:17:50.916Z,5540.00
2019-03-08T09:18:49.876Z,5872.00
2019-03-08T09:19:49.840Z,5244.00
2019-03-08T09:20:50.399Z,4584.00
2019-03-08T09:21:49.806Z,4148.00
2019-03-08T09:22:49.751Z,4116.00
2019-03-08T09:23:49.721Z,4664.00
2019-03-08T09:24:49.758Z,6256.00
2019-03-08T09:25:50.352Z,7612.00
2019-03-08T09:26:49.648Z,9028.00
2019-03-08T09:27:50.351Z,8940.00
2019-03-08T09:28:49.574Z,8968.00
2019-03-08T09:29:49.541Z,10792.00
2019-03-08T09:30:49.506Z,11760.00
2019-03-08T09:31:49.931Z,11664.00
2019-03-08T09:32:58.728Z,10052.00
2019-03-08T09:33:49.427Z,9888.00
2019-03-08T09:34:52.301Z,10204.00
2019-03-08T09:35:49.356Z,9320.00
2019-03-08T09:36:49.385Z,8464.00
2019-03-08T09:37:49.307Z,8536.00
2019-03-08T09:38:49.950Z,8188.00
2019-03-08T09:39:49.858Z,7228.00
2019-03-08T09:40:51.803Z,7440.00
2019-03-08T09:41:49.999Z,8748.00
2019-03-08T09:42:49.169Z,9368.00
2019-03-08T09:43:49.961Z,8488.00
2019-03-08T09:44:49.087Z,6628.00
2019-03-08T09:45:49.063Z,7612.00
2019-03-08T09:46:49.382Z,6976.00
2019-03-08T09:47:49.017Z,6224.00
2019-03-08T09:48:49.899Z,6804.00
2019-03-08T09:49:48.934Z,7004.00
2019-03-08T09:50:48.962Z,6504.00
2019-03-08T09:51:48.883Z,5932.00
2019-03-08T09:52:48.870Z,5056.00
2019-03-08T09:53:48.819Z,6076.00
2019-03-08T09:54:48.785Z,9232.00
2019-03-08T09:55:48.750Z,8436.00
2019-03-08T09:56:48.719Z,6980.00
2019-03-08T09:57:48.724Z,7504.00
2019-03-08T09:58:48.664Z,10244.00
2019-03-08T09:59:48.632Z,9112.00
2019-03-08T10:00:48.608Z,9032.00
2019-03-08T10:01:48.572Z,7252.00
2019-03-08T10:02:48.563Z,8420.00
2019-03-08T10:03:48.513Z,6024.00
2019-03-08T10:04:49.398Z,4112.00
2019-03-08T10:05:48.457Z,4532.00
2019-03-08T10:06:48.422Z,4188.00
2019-03-08T10:07:48.419Z,4108.00
2019-03-08T10:08:48.378Z,5012.00
2019-03-08T10:09:48.425Z,8712.00
2019-03-08T10:10:48.299Z,7820.00
2019-03-08T10:11:48.268Z,8860.00
2019-03-08T10:12:48.266Z,10448.00
2019-03-08T10:13:48.208Z,8820.00
2019-03-08T10:14:49.845Z,7520.00
2019-03-08T10:15:48.904Z,7456.00
2019-03-08T10:16:48.169Z,11584.00
2019-03-08T10:17:48.129Z,14124.00
2019-03-08T10:18:48.056Z,14812.00
2019-03-08T10:19:48.908Z,14612.00
2019-03-08T10:20:47.993Z,14752.00
2019-03-08T10:21:47.969Z,15648.00
2019-03-08T10:22:47.957Z,15628.00
2019-03-08T10:23:47.905Z,14896.00
2019-03-08T10:24:47.893Z,16252.00
2019-03-08T10:25:47.839Z,15900.00
2019-03-08T10:26:47.818Z,16492.00
2019-03-08T10:27:47.779Z,16108.00
2019-03-08T10:28:47.780Z,14892.00
2019-03-08T10:29:47.716Z,13936.00
2019-03-08T10:30:48.409Z,13828.00
2019-03-08T10:31:47.654Z,14248.00
2019-03-08T10:32:47.632Z,14560.00
2019-03-08T10:33:47.644Z,14272.00
2019-03-08T10:34:47.571Z,13948.00
2019-03-08T10:35:47.537Z,13568.00
2019-03-08T10:36:47.509Z,13156.00
2019-03-08T10:37:47.499Z,13016.00
2019-03-08T10:38:47.475Z,13472.00
2019-03-08T10:39:47.419Z,14036.00
2019-03-08T10:40:47.388Z,13936.00
2019-03-08T10:41:47.360Z,14008.00
2019-03-08T10:42:47.326Z,14208.00
2019-03-08T10:43:47.446Z,13692.00
2019-03-08T10:44:47.275Z,12584.00
2019-03-08T10:45:47.243Z,12432.00
2019-03-08T10:46:47.213Z,10260.00
2019-03-08T10:47:55.622Z,9292.00
2019-03-08T10:48:47.173Z,8308.00
2019-03-08T10:49:55.143Z,7896.00
2019-03-08T10:50:47.094Z,7616.00
2019-03-08T10:51:47.136Z,7988.00
2019-03-08T10:52:47.035Z,8032.00
2019-03-08T10:53:47.048Z,8408.00
2019-03-08T10:54:46.972Z,9356.00
2019-03-08T10:55:46.944Z,10664.00
2019-03-08T10:56:46.910Z,11616.00
2019-03-08T10:57:46.893Z,10700.00
2019-03-08T10:58:46.884Z,10052.00
2019-03-08T10:59:46.828Z,10128.00
2019-03-08T11:00:46.794Z,10940.00
2019-03-08T11:01:46.895Z,9976.00
2019-03-08T11:02:48.166Z,13268.00
2019-03-08T11:03:46.732Z,14168.00
2019-03-08T11:04:46.680Z,14376.00
2019-03-08T11:05:46.660Z,13460.00
2019-03-08T11:06:46.622Z,12148.00
2019-03-08T11:07:46.610Z,12328.00
2019-03-08T11:08:46.553Z,11968.00
2019-03-08T11:09:46.554Z,10236.00
2019-03-08T11:10:48.405Z,7200.00
2019-03-08T11:11:46.491Z,9292.00
2019-03-08T11:12:46.441Z,13004.00
2019-03-08T11:13:46.427Z,9476.00
2019-03-08T11:14:46.453Z,11340.00
2019-03-08T11:15:46.928Z,10700.00
2019-03-08T11:16:46.341Z,8136.00
2019-03-08T11:17:50.717Z,6848.00
2019-03-08T11:18:46.257Z,6032.00
2019-03-08T11:19:46.251Z,5808.00
2019-03-08T11:20:46.521Z,6380.00
2019-03-08T11:21:46.172Z,7384.00
2019-03-08T11:22:46.916Z,9744.00
2019-03-08T11:23:46.109Z,9908.00
2019-03-08T11:24:46.113Z,12624.00
2019-03-08T11:25:46.049Z,13532.00
2019-03-08T11:26:46.020Z,11040.00
2019-03-08T11:27:45.982Z,8136.00
2019-03-08T11:28:45.963Z,8072.00
2019-03-08T11:29:45.948Z,6812.00
2019-03-08T11:30:53.813Z,6920.00
2019-03-08T11:31:45.870Z,7644.00
2019-03-08T11:32:46.427Z,7656.00
2019-03-08T11:33:45.821Z,7592.00
2019-03-08T11:34:51.926Z,6668.00
2019-03-08T11:35:45.762Z,6340.00
2019-03-08T11:36:45.722Z,7964.00
2019-03-08T11:37:45.722Z,10716.00
2019-03-08T11:38:45.664Z,12260.00
2019-03-08T11:39:45.629Z,13344.00
2019-03-08T11:40:45.657Z,13780.00
2019-03-08T11:41:46.342Z,14452.00
2019-03-08T11:42:50.321Z,14500.00
2019-03-08T11:43:45.651Z,14368.00
2019-03-08T11:44:46.331Z,13312.00
2019-03-08T11:45:45.603Z,11480.00
2019-03-08T11:46:45.435Z,9032.00
2019-03-08T11:47:45.481Z,7488.00
2019-03-08T11:48:46.322Z,6584.00
2019-03-08T11:49:45.345Z,6808.00
2019-03-08T11:50:45.346Z,6992.00
2019-03-08T11:51:45.264Z,6648.00
2019-03-08T11:52:45.269Z,7000.00
2019-03-08T11:53:45.212Z,8828.00
2019-03-08T11:54:45.175Z,11928.00
2019-03-08T11:55:45.173Z,14740.00
2019-03-08T11:56:45.114Z,15728.00
2019-03-08T11:57:45.095Z,14896.00
2019-03-08T11:58:45.052Z,14200.00
2019-03-08T11:59:45.022Z,14208.00
2019-03-08T12:00:45.012Z,13564.00
2019-03-08T12:01:44.966Z,11328.00
2019-03-08T12:02:44.933Z,10552.00
2019-03-08T12:03:44.902Z,10648.00
2019-03-08T12:04:44.904Z,10720.00
2019-03-08T12:05:44.868Z,9296.00
2019-03-08T12:06:44.834Z,8028.00
2019-03-08T12:07:44.782Z,7792.00
2019-03-08T12:08:44.752Z,7244.00
2019-03-08T12:09:44.728Z,6852.00
2019-03-08T12:10:44.718Z,6764.00
2019-03-08T12:11:44.663Z,6644.00
2019-03-08T12:12:46.495Z,6500.00
2019-03-08T12:13:44.603Z,6644.00
2019-03-08T12:14:44.569Z,6552.00
2019-03-08T12:15:44.547Z,6268.00
2019-03-08T12:16:44.556Z,6276.00
2019-03-08T12:17:44.480Z,6616.00
2019-03-08T12:18:44.447Z,7376.00
2019-03-08T12:19:44.927Z,8248.00
2019-03-08T12:20:44.388Z,7928.00
2019-03-08T12:21:44.385Z,6916.00
2019-03-08T12:22:44.327Z,6452.00
2019-03-08T12:23:44.307Z,6760.00
2019-03-08T12:24:44.279Z,6936.00
2019-03-08T12:25:44.238Z,7112.00
2019-03-08T12:26:44.238Z,7292.00
2019-03-08T12:27:44.173Z,7376.00
2019-03-08T12:28:44.932Z,7136.00
2019-03-08T12:29:44.112Z,6836.00
2019-03-08T12:30:44.082Z,6656.00
2019-03-08T12:31:44.076Z,6384.00
2019-03-08T12:32:44.035Z,5996.00
2019-03-08T12:33:43.991Z,5584.00
2019-03-08T12:34:43.981Z,5244.00
2019-03-08T12:35:43.939Z,5072.00